Terminal Aerodrome Forecast
Issued by NWS

Home | Current Version | Previous Version | Graphics & Text | Print | Product List | Glossary On
Versions: 1 2 3 4 5 6 7 8 9 10 11 12 13 14 15 16 17
763
FTUS43 KMPX 062341
TAFRWF
TAF
KRWF 062341Z 0700/0724 21015G23KT P6SM -RA OVC060
     FM070200 23016G24KT P6SM BKN120
     FM070900 28018G27KT P6SM OVC090
     FM072000 31023G35KT 3SM -SHSN BLSN OVC020=

USA.gov is the U.S. government's official web portal to all federal, state and local government web resources and services.